Pagrindinis puslapis
METAR-TAF:

METAR-TAF

Oro uostai :

Stokholmas-Arlanda, Švedija

platuma: 59-39N, ilguma: 017-57E, Aukštis: 38 m

Dabartinis oras

Ataskaita buvo paskelbta 23 minutes, ne 03:20 UTC
Vėjas 5 kt iš Vakarų
Temperatūra 12°C
Drėgmė 100%
Slėgis 1022 hPa
Matomumas: 2000 m
Su prošvaistėmis ne aukštis 600 ft
rūkana

METAR: ESSA 240320Z 26005KT 2000 BR BKN006 12/12 Q1022 TEMPO 3000 BR BKN006

Laikas: 05:43 (03:43 UTC)

Prognozė

Ataskaita buvo paskelbta 4 valandos ir 13 minutes, ne 23:30 UTC
Prognozė galioja nuo 24 metu 00 UTC su 24 metu 24 UTC
Vėjas 9 kt iš Vakarų/Pietvakarių
Matomumas 10 km arba daugiau
nėra debesų žemiau 1500 m ir nėra kamuolinių lietaus debesų
Tikimybė 40%
nuo 24 metu 00 UTC su 24 metu 06 UTC
Matomumas: 0300 m
ne aukštis 200 ft
rūkas
Tikimybė 40%
nuo 24 metu 06 UTC su 24 metu 08 UTC
Su prošvaistėmis ne aukštis 700 ft

TAF: ESSA 232330Z 2400/2424 25009KT CAVOK PROB40 2400/2406 0300 FG VV002 PROB40 2406/2408 BKN007

Orai ataskaitas ir orų prognozės (METAR, TAF).

turimą stotys yra geltonos ir raudonos taškus žemėlapyje.

Perkelti pele per norėdami pamatyti stoties vardą.

Tada spustelėkite, norėdami matyti oro stebėjimo ir prognozės.

Norėdami pakeisti žemėlapį: spustelėkite ant žalios mygtukų su juodo kryžiaus žemyn,; žalią mygtuką su brūkšneliu, jei norite nutolinti; arba žalių rodyklių gretimoms žemėlapius.


METAR-TAF: